createdAt,value
2023-05-07T00:00:22.544Z,101819.75
2023-05-07T00:02:52.028Z,101815.28
2023-05-07T00:05:24.439Z,101815.19
2023-05-07T00:07:54.081Z,101811.03
2023-05-07T00:10:23.661Z,101811.03
2023-05-07T00:12:53.269Z,101811.59
2023-05-07T00:15:25.105Z,101806.38
2023-05-07T00:17:54.709Z,101807.38
2023-05-07T00:20:26.981Z,101807.13
2023-05-07T00:22:56.513Z,101808.50
2023-05-07T00:25:26.082Z,101801.00
2023-05-07T00:27:55.629Z,101804.81
2023-05-07T00:30:25.377Z,101813.06
2023-05-07T00:32:55.198Z,101806.34
2023-05-07T00:35:27.477Z,101808.69
2023-05-07T00:37:56.989Z,101811.84
2023-05-07T00:40:26.537Z,101810.06
2023-05-07T00:42:59.434Z,101798.75
2023-05-07T00:45:30.568Z,101801.31
2023-05-07T00:48:02.106Z,101802.91
2023-05-07T00:50:35.621Z,101814.59
2023-05-07T00:53:05.186Z,101795.84
2023-05-07T00:55:34.665Z,101797.75
2023-05-07T00:58:04.236Z,101792.09
2023-05-07T01:00:33.826Z,101804.34
2023-05-07T01:03:03.405Z,101802.34
2023-05-07T01:05:36.509Z,101800.34
2023-05-07T01:08:06.776Z,101807.13
2023-05-07T01:10:36.275Z,101799.00
2023-05-07T01:13:06.191Z,101809.25
2023-05-07T01:15:36.175Z,101809.69
2023-05-07T01:18:05.783Z,101808.94
2023-05-07T01:20:38.163Z,101807.03
2023-05-07T01:23:11.084Z,101815.75
2023-05-07T01:25:40.872Z,101814.50
2023-05-07T01:28:10.337Z,101806.47
2023-05-07T01:30:40.093Z,101803.00
2023-05-07T01:33:13.121Z,101803.78
2023-05-07T01:35:46.051Z,101804.81
2023-05-07T01:38:18.531Z,101806.38
2023-05-07T01:40:48.083Z,101797.44
2023-05-07T01:43:17.836Z,101803.34
2023-05-07T01:45:50.189Z,101794.97
2023-05-07T01:48:19.702Z,101793.41
2023-05-07T01:50:49.379Z,101786.84
2023-05-07T01:53:21.535Z,101787.59
2023-05-07T01:55:51.075Z,101795.31
2023-05-07T01:58:20.617Z,101792.75
2023-05-07T02:00:50.258Z,101799.44
2023-05-07T02:03:20.031Z,101803.91
2023-05-07T02:05:49.622Z,101798.53
2023-05-07T02:08:21.727Z,101803.00
2023-05-07T02:10:52.614Z,101800.13
2023-05-07T02:13:23.460Z,101817.97
2023-05-07T02:15:53.144Z,101813.06
2023-05-07T02:18:22.672Z,101811.94
2023-05-07T02:20:54.315Z,101816.09
2023-05-07T02:23:26.433Z,101820.53
2023-05-07T02:25:56.166Z,101824.44
2023-05-07T02:28:25.632Z,101820.78
2023-05-07T02:30:59.674Z,101819.31
2023-05-07T02:33:29.229Z,101823.09
2023-05-07T02:35:58.854Z,101823.09
2023-05-07T02:38:31.236Z,101820.88
2023-05-07T02:41:00.753Z,101820.66
2023-05-07T02:43:30.804Z,101828.47
2023-05-07T02:46:07.106Z,101825.81
2023-05-07T02:48:36.710Z,101828.25
2023-05-07T02:51:07.395Z,101827.78
2023-05-07T02:53:39.509Z,101823.13
2023-05-07T02:56:09.794Z,101834.16
2023-05-07T02:58:40.658Z,101821.75
2023-05-07T03:01:10.242Z,101823.09
2023-05-07T03:03:39.950Z,101822.44
2023-05-07T03:06:10.329Z,101822.66
2023-05-07T03:08:42.383Z,101833.38
2023-05-07T03:11:12.086Z,101829.00
2023-05-07T03:13:41.636Z,101827.34
2023-05-07T03:16:11.190Z,101827.78
2023-05-07T03:18:41.022Z,101830.25
2023-05-07T03:21:10.508Z,101842.44
2023-05-07T03:23:42.785Z,101833.59
2023-05-07T03:26:12.285Z,101834.50
2023-05-07T03:28:41.803Z,101833.81
2023-05-07T03:31:11.370Z,101843.19
2023-05-07T03:33:52.793Z,101850.13
2023-05-07T03:36:22.656Z,101848.56
2023-05-07T03:38:54.712Z,101841.28
2023-05-07T03:41:24.295Z,101848.22
2023-05-07T03:43:53.866Z,101845.75
2023-05-07T03:46:23.439Z,101833.38
2023-05-07T03:48:53.018Z,101834.94
2023-05-07T03:51:22.542Z,101842.75
2023-05-07T03:53:55.521Z,101834.94
2023-05-07T03:56:27.847Z,101837.75
2023-05-07T03:58:57.568Z,101851.25
2023-05-07T04:01:27.405Z,101853.56
2023-05-07T04:03:57.115Z,101861.28
2023-05-07T04:06:26.701Z,101858.81
2023-05-07T04:08:59.050Z,101870.09
2023-05-07T04:11:28.973Z,101869.53
2023-05-07T04:13:58.478Z,101867.97
2023-05-07T04:16:27.979Z,101873.75
2023-05-07T04:18:57.649Z,101876.47
2023-05-07T04:21:27.585Z,101874.69
2023-05-07T04:23:59.848Z,101878.81
2023-05-07T04:26:29.387Z,101871.31
2023-05-07T04:29:00.294Z,101878.69
2023-05-07T04:31:30.223Z,101877.56
2023-05-07T04:33:59.746Z,101881.03
2023-05-07T04:36:30.689Z,101883.94
2023-05-07T04:39:02.738Z,101874.41
2023-05-07T04:41:34.012Z,101862.41
2023-05-07T04:44:05.454Z,101872.66
2023-05-07T04:46:35.006Z,101878.16
2023-05-07T04:49:04.535Z,101884.09
2023-05-07T04:51:34.158Z,101897.44
2023-05-07T04:54:06.299Z,101892.63
2023-05-07T04:56:35.751Z,101891.88
2023-05-07T04:59:05.749Z,101906.81
2023-05-07T05:01:35.371Z,101913.88
2023-05-07T05:04:05.030Z,101912.63
2023-05-07T05:06:34.589Z,101915.78
2023-05-07T05:09:06.870Z,101918.34
2023-05-07T05:11:36.359Z,101914.75
2023-05-07T05:14:05.875Z,101914.66
2023-05-07T05:16:35.521Z,101909.06
2023-05-07T05:19:06.079Z,101907.16
2023-05-07T05:21:35.867Z,101911.53
2023-05-07T05:24:08.433Z,101910.63
2023-05-07T05:26:37.977Z,101914.75
2023-05-07T05:29:07.847Z,101908.97
2023-05-07T05:31:37.551Z,101912.41
2023-05-07T05:34:07.269Z,101912.72
2023-05-07T05:36:36.804Z,101912.72
2023-05-07T05:39:09.755Z,101920.91
2023-05-07T05:41:39.244Z,101925.50
2023-05-07T05:44:11.483Z,101920.78
2023-05-07T05:46:41.164Z,101926.38
2023-05-07T05:49:10.707Z,101928.47
2023-05-07T05:51:40.182Z,101926.03
2023-05-07T05:54:12.361Z,101934.06
2023-05-07T05:56:41.907Z,101939.09
2023-05-07T05:59:11.688Z,101947.69
2023-05-07T06:01:41.261Z,101945.91
2023-05-07T06:04:11.032Z,101948.13
2023-05-07T06:06:40.496Z,101945.69
2023-05-07T06:09:12.875Z,101946.78
2023-05-07T06:11:42.426Z,101944.00
2023-05-07T06:14:11.933Z,101948.34
2023-05-07T06:16:41.617Z,101956.50
2023-05-07T06:19:11.181Z,101955.75
2023-05-07T06:21:40.765Z,101957.28
2023-05-07T06:24:13.388Z,101960.63
2023-05-07T06:26:42.906Z,101968.47
2023-05-07T06:29:12.504Z,101970.13
2023-05-07T06:31:42.153Z,101967.34
2023-05-07T06:34:15.261Z,101971.47
2023-05-07T06:36:45.121Z,101972.69
2023-05-07T06:39:17.164Z,101975.41
2023-05-07T06:41:46.693Z,101973.81
2023-05-07T06:44:16.241Z,101974.94
2023-05-07T06:46:46.450Z,101971.16
2023-05-07T06:49:16.115Z,101964.66
2023-05-07T06:51:45.600Z,101967.66
2023-05-07T06:54:17.740Z,101967.09
2023-05-07T06:56:47.301Z,101978.00
2023-05-07T06:59:16.855Z,101981.38
2023-05-07T07:01:46.427Z,101972.06
2023-05-07T07:04:16.045Z,101971.53
2023-05-07T07:06:45.654Z,101977.75
2023-05-07T07:09:17.861Z,101988.84
2023-05-07T07:11:47.346Z,101983.41
2023-05-07T07:14:16.890Z,101993.41
2023-05-07T07:16:47.913Z,101988.25
2023-05-07T07:19:18.741Z,101985.91
2023-05-07T07:21:48.249Z,101989.28
2023-05-07T07:24:22.746Z,101991.41
2023-05-07T07:26:52.260Z,101983.81
2023-05-07T07:29:22.450Z,102001.03
2023-05-07T07:31:52.824Z,102000.34
2023-05-07T07:34:22.420Z,102000.47
2023-05-07T07:36:52.173Z,102004.34
2023-05-07T07:39:24.264Z,102009.78
2023-05-07T07:41:53.783Z,102003.66
2023-05-07T07:44:23.449Z,102009.00
2023-05-07T07:46:53.057Z,102004.56
2023-05-07T07:49:22.625Z,102009.22
2023-05-07T07:51:52.261Z,102010.97
2023-05-07T07:54:24.348Z,102013.19
2023-05-07T07:56:54.040Z,102013.63
2023-05-07T07:59:23.608Z,102017.22
2023-05-07T08:01:55.513Z,102031.66
2023-05-07T08:04:25.376Z,102036.44
2023-05-07T08:06:55.415Z,102024.34
2023-05-07T08:09:29.905Z,102029.31
2023-05-07T08:11:59.404Z,102023.47
2023-05-07T08:14:29.444Z,102041.00
2023-05-07T08:16:59.181Z,102035.56
2023-05-07T08:19:28.795Z,102033.78
2023-05-07T08:21:58.279Z,102046.16
2023-05-07T08:24:30.492Z,102048.25
2023-05-07T08:26:59.961Z,102042.69
2023-05-07T08:29:29.608Z,102047.13
2023-05-07T08:31:59.115Z,102050.81
2023-05-07T08:34:29.324Z,102062.31
2023-05-07T08:36:58.836Z,102055.97
2023-05-07T08:39:30.940Z,102058.66
2023-05-07T08:42:04.303Z,102061.16
2023-05-07T08:44:37.129Z,102067.53
2023-05-07T08:47:06.843Z,102062.16
2023-05-07T08:49:37.406Z,102069.69
2023-05-07T08:52:09.223Z,102075.41
2023-05-07T08:54:43.031Z,102082.03
2023-05-07T08:57:12.523Z,102081.00
2023-05-07T08:59:42.110Z,102086.13
2023-05-07T09:02:13.302Z,102080.56
2023-05-07T09:04:42.921Z,102088.00
2023-05-07T09:07:12.378Z,102091.34
2023-05-07T09:09:44.441Z,102090.38
2023-05-07T09:12:13.957Z,102088.06
2023-05-07T09:14:43.649Z,102086.69
2023-05-07T09:17:13.119Z,102092.22
2023-05-07T09:19:42.658Z,102088.03
2023-05-07T09:22:12.130Z,102090.91
2023-05-07T09:24:44.477Z,102101.97
2023-05-07T09:27:14.571Z,102096.06
2023-05-07T09:29:44.170Z,102103.31
2023-05-07T09:32:14.552Z,102107.78
2023-05-07T09:34:45.291Z,102110.06
2023-05-07T09:37:16.726Z,102100.47
2023-05-07T09:39:51.503Z,102104.25
2023-05-07T09:42:27.754Z,102103.88
2023-05-07T09:44:57.317Z,102107.16
2023-05-07T09:47:28.399Z,102104.69
2023-05-07T09:50:00.453Z,102118.56
2023-05-07T09:52:34.540Z,102111.13
2023-05-07T09:55:07.406Z,102122.13
2023-05-07T09:57:37.839Z,102121.16
2023-05-07T10:00:09.959Z,102119.94
2023-05-07T10:02:42.270Z,102131.28
2023-05-07T10:05:13.128Z,102127.91
2023-05-07T10:07:42.781Z,102128.72
2023-05-07T10:10:15.194Z,102131.69
2023-05-07T10:12:44.781Z,102133.97
2023-05-07T10:15:15.561Z,102146.00
2023-05-07T10:17:45.218Z,102147.06
2023-05-07T10:20:15.203Z,102146.19
2023-05-07T10:22:47.195Z,102144.59
2023-05-07T10:25:23.446Z,102159.69
2023-05-07T10:27:53.641Z,102154.75
2023-05-07T10:30:32.401Z,102154.13
2023-05-07T10:33:07.280Z,102154.81
2023-05-07T10:35:45.441Z,102144.94
2023-05-07T10:38:15.032Z,102152.63
2023-05-07T10:40:47.830Z,102156.75
2023-05-07T10:43:17.866Z,102176.13
2023-05-07T10:45:47.888Z,102166.75
2023-05-07T10:48:28.798Z,102170.72
2023-05-07T10:51:23.662Z,102173.31
2023-05-07T10:54:22.806Z,102174.34
2023-05-07T10:56:54.901Z,102183.88
2023-05-07T10:59:43.165Z,102169.94
2023-05-07T11:02:15.537Z,102174.78
2023-05-07T11:04:45.835Z,102181.41
2023-05-07T11:07:29.139Z,102195.13
2023-05-07T11:10:05.408Z,102194.16
2023-05-07T11:12:55.796Z,102199.50
2023-05-07T11:15:48.277Z,102202.56
2023-05-07T11:18:18.902Z,102200.63
2023-05-07T11:21:06.571Z,102200.63
2023-05-07T11:24:11.794Z,102212.09
2023-05-07T11:26:49.075Z,102208.69
2023-05-07T11:29:23.791Z,102208.22
2023-05-07T11:31:54.811Z,102220.25
2023-05-07T11:34:25.794Z,102212.31
2023-05-07T11:36:56.216Z,102213.75
2023-05-07T11:39:34.074Z,102214.13
2023-05-07T11:42:03.853Z,102215.78
2023-05-07T11:44:50.243Z,102211.69
2023-05-07T11:47:24.030Z,102203.47
2023-05-07T11:49:54.702Z,102201.78
2023-05-07T11:52:25.308Z,102206.09
2023-05-07T11:54:55.876Z,102210.38
2023-05-07T11:57:25.880Z,102201.53
2023-05-07T11:59:59.910Z,102203.81
2023-05-07T12:02:29.811Z,102206.59
2023-05-07T12:04:59.430Z,102197.03
2023-05-07T12:07:28.959Z,102204.81
2023-05-07T12:09:58.442Z,102207.09
2023-05-07T12:12:28.137Z,102200.06
2023-05-07T12:15:00.227Z,102210.22
2023-05-07T12:17:29.820Z,102211.63
2023-05-07T12:19:59.588Z,102215.69
2023-05-07T12:22:29.119Z,102216.75
2023-05-07T12:25:01.646Z,102231.31
2023-05-07T12:27:31.766Z,102232.09
2023-05-07T12:30:03.918Z,102230.63
2023-05-07T12:32:37.581Z,102230.56
2023-05-07T12:35:10.345Z,102233.28
2023-05-07T12:37:40.240Z,102238.38
2023-05-07T12:40:11.258Z,102235.63
2023-05-07T12:42:42.083Z,102233.88
2023-05-07T12:45:16.024Z,102211.59
2023-05-07T12:47:47.751Z,102197.00
2023-05-07T12:50:17.854Z,102153.06
2023-05-07T12:52:48.146Z,102134.06
2023-05-07T12:55:18.877Z,102129.75
2023-05-07T12:57:52.526Z,102128.91
2023-05-07T13:00:36.679Z,102135.88
2023-05-07T13:03:06.539Z,102130.13
2023-05-07T13:05:36.398Z,102108.97
2023-05-07T13:08:05.894Z,102116.44
2023-05-07T13:10:36.494Z,102124.00
2023-05-07T13:13:05.971Z,102104.56
2023-05-07T13:15:39.005Z,102092.09
2023-05-07T13:18:08.714Z,102070.66
2023-05-07T13:20:38.233Z,102045.84
2023-05-07T13:23:08.077Z,102033.13
2023-05-07T13:25:39.169Z,102029.91
2023-05-07T13:28:11.177Z,102029.59
2023-05-07T13:30:44.500Z,102009.53
2023-05-07T13:33:14.027Z,102023.09
2023-05-07T13:35:44.554Z,102012.66
2023-05-07T13:38:14.119Z,102000.81
2023-05-07T13:40:43.653Z,102000.66
2023-05-07T13:43:13.222Z,101986.03
2023-05-07T13:45:45.351Z,101963.09
2023-05-07T13:48:14.894Z,101959.22
2023-05-07T13:50:44.466Z,101889.25
2023-05-07T13:53:13.998Z,101804.41
2023-05-07T13:55:43.492Z,101749.06
2023-05-07T13:58:13.001Z,101723.69
2023-05-07T14:00:45.086Z,101691.63
2023-05-07T14:03:14.725Z,101680.53
2023-05-07T14:05:44.498Z,101671.94
2023-05-07T14:08:15.074Z,101658.91
2023-05-07T14:10:44.601Z,101656.38
2023-05-07T14:13:14.482Z,101653.16
2023-05-07T14:15:47.838Z,101651.28
2023-05-07T14:18:17.398Z,101640.13
2023-05-07T14:20:48.740Z,101653.41
2023-05-07T14:23:18.836Z,101640.00
2023-05-07T14:25:48.835Z,101640.69
2023-05-07T14:28:18.386Z,101652.50
2023-05-07T14:30:51.055Z,101654.63
2023-05-07T14:33:20.983Z,101638.66
2023-05-07T14:35:51.225Z,101667.34
2023-05-07T14:38:20.760Z,101697.81
2023-05-07T14:40:50.471Z,101680.84
2023-05-07T14:43:19.923Z,101678.69
2023-05-07T14:45:52.445Z,101662.97
2023-05-07T14:48:21.979Z,101652.91
2023-05-07T14:50:51.713Z,101665.00
2023-05-07T14:53:21.272Z,101672.53
2023-05-07T14:55:51.318Z,101691.75
2023-05-07T14:58:20.796Z,101689.44
2023-05-07T15:00:52.917Z,101705.44
2023-05-07T15:03:22.949Z,101715.16
2023-05-07T15:05:53.578Z,101720.31
2023-05-07T15:08:23.345Z,101720.88
2023-05-07T15:10:52.922Z,101708.81
2023-05-07T15:13:22.478Z,101705.25
2023-05-07T15:15:54.923Z,101707.59
2023-05-07T15:18:24.485Z,101705.56
2023-05-07T15:20:54.033Z,101693.47
2023-05-07T15:23:23.599Z,101693.38
2023-05-07T15:25:53.067Z,101677.13
2023-05-07T15:28:23.221Z,101628.41
2023-05-07T15:30:56.393Z,101605.94
2023-05-07T15:33:26.065Z,101583.09
2023-05-07T15:35:55.625Z,101567.81
2023-05-07T15:38:25.131Z,101588.28
2023-05-07T15:40:55.698Z,101562.09
2023-05-07T15:43:26.058Z,101494.31
2023-05-07T15:46:01.346Z,101481.50
2023-05-07T15:48:31.700Z,101450.00
2023-05-07T15:51:03.570Z,101453.78
2023-05-07T15:53:33.094Z,101454.75
2023-05-07T15:56:02.623Z,101449.66
2023-05-07T15:58:32.313Z,101441.38
2023-05-07T16:01:05.068Z,101455.03
2023-05-07T16:03:35.101Z,101466.09
2023-05-07T16:06:05.254Z,101467.75
2023-05-07T16:08:34.837Z,101467.63
2023-05-07T16:11:04.518Z,101486.81
2023-05-07T16:13:33.995Z,101460.69
2023-05-07T16:16:06.584Z,101442.66
2023-05-07T16:18:37.127Z,101441.50
2023-05-07T16:21:06.830Z,101443.13
2023-05-07T16:23:37.332Z,101447.47
2023-05-07T16:26:07.548Z,101446.78
2023-05-07T16:28:37.045Z,101455.91
2023-05-07T16:31:10.419Z,101450.41
2023-05-07T16:33:39.900Z,101449.31
2023-05-07T16:36:10.294Z,101454.44
2023-05-07T16:38:39.869Z,101445.63
2023-05-07T16:41:09.369Z,101451.84
2023-05-07T16:43:38.868Z,101447.81
2023-05-07T16:46:11.075Z,101465.47
2023-05-07T16:48:40.549Z,101458.63
2023-05-07T16:51:10.090Z,101463.28
2023-05-07T16:53:39.847Z,101464.47
2023-05-07T16:56:09.673Z,101465.31
2023-05-07T16:58:40.816Z,101453.00
2023-05-07T17:01:15.335Z,101442.00
2023-05-07T17:03:44.989Z,101445.84
2023-05-07T17:06:15.407Z,101443.47
2023-05-07T17:08:45.035Z,101443.19
2023-05-07T17:11:14.966Z,101441.38
2023-05-07T17:13:44.513Z,101449.66
2023-05-07T17:16:16.985Z,101451.47
2023-05-07T17:18:46.504Z,101438.75
2023-05-07T17:21:16.174Z,101444.78
2023-05-07T17:23:45.694Z,101443.78
2023-05-07T17:26:16.229Z,101447.13
2023-05-07T17:28:47.564Z,101446.53
2023-05-07T17:31:19.760Z,101444.56
2023-05-07T17:33:49.255Z,101440.66
2023-05-07T17:36:18.852Z,101430.69
2023-05-07T17:38:48.491Z,101427.94
2023-05-07T17:41:18.204Z,101439.91
2023-05-07T17:43:47.666Z,101442.22
2023-05-07T17:46:19.842Z,101452.13
2023-05-07T17:48:49.443Z,101443.31
2023-05-07T17:51:19.018Z,101450.88
2023-05-07T17:53:48.727Z,101451.56
2023-05-07T17:56:23.164Z,101458.16
2023-05-07T17:59:09.917Z,101463.13
2023-05-07T18:01:42.423Z,101458.75
2023-05-07T18:04:12.272Z,101462.97
2023-05-07T18:06:42.294Z,101467.16
2023-05-07T18:09:11.873Z,101470.44
2023-05-07T18:11:41.398Z,101473.69
2023-05-07T18:14:10.893Z,101487.31
2023-05-07T18:16:43.313Z,101490.34
2023-05-07T18:19:13.003Z,101493.00
2023-05-07T18:21:42.495Z,101499.41
2023-05-07T18:24:12.175Z,101523.41
2023-05-07T18:26:41.701Z,101531.63
2023-05-07T18:29:11.196Z,101534.78
2023-05-07T18:31:43.359Z,101523.34
2023-05-07T18:34:14.415Z,101528.28
2023-05-07T18:36:43.956Z,101548.81
2023-05-07T18:39:13.464Z,101557.50
2023-05-07T18:41:42.962Z,101579.56
2023-05-07T18:44:12.484Z,101594.97
2023-05-07T18:46:45.622Z,101616.31
2023-05-07T18:49:15.094Z,101622.38
2023-05-07T18:51:45.135Z,101631.69
2023-05-07T18:54:14.649Z,101658.25
2023-05-07T18:56:44.642Z,101680.19
2023-05-07T18:59:14.444Z,101701.69
2023-05-07T19:01:46.872Z,101720.50
2023-05-07T19:04:16.619Z,101747.88
2023-05-07T19:06:46.184Z,101779.97
2023-05-07T19:09:15.680Z,101817.31
2023-05-07T19:11:45.199Z,101854.94
2023-05-07T19:14:14.855Z,101893.66
2023-05-07T19:16:46.982Z,101917.63
2023-05-07T19:19:16.501Z,101912.75
2023-05-07T19:21:46.022Z,101922.94
2023-05-07T19:24:15.641Z,101959.81
2023-05-07T19:26:45.353Z,102000.06
2023-05-07T19:29:18.225Z,102021.25
2023-05-07T19:31:50.781Z,102074.75
2023-05-07T19:34:20.333Z,102113.38
2023-05-07T19:36:49.832Z,102129.41
2023-05-07T19:39:20.454Z,102156.97
2023-05-07T19:41:50.075Z,102179.81
2023-05-07T19:44:19.530Z,102207.09
2023-05-07T19:46:52.802Z,102217.19
2023-05-07T19:49:22.284Z,102226.16
2023-05-07T19:51:51.797Z,102230.44
2023-05-07T19:54:21.332Z,102253.81
2023-05-07T19:56:50.839Z,102256.03
2023-05-07T19:59:20.353Z,102258.41
2023-05-07T20:01:52.651Z,102260.81
2023-05-07T20:04:22.208Z,102264.09
2023-05-07T20:06:51.688Z,102282.69
2023-05-07T20:09:21.201Z,102287.59
2023-05-07T20:11:50.728Z,102283.31
2023-05-07T20:14:20.199Z,102300.63
2023-05-07T20:16:52.481Z,102299.31
2023-05-07T20:19:22.010Z,102306.00
2023-05-07T20:21:51.593Z,102309.16
2023-05-07T20:24:22.363Z,102309.97
2023-05-07T20:26:52.039Z,102314.06
2023-05-07T20:29:21.755Z,102309.50
2023-05-07T20:31:53.904Z,102315.78
2023-05-07T20:34:23.816Z,102311.00
2023-05-07T20:36:53.553Z,102321.53
2023-05-07T20:39:23.126Z,102317.94
2023-05-07T20:41:53.340Z,102321.63
2023-05-07T20:44:23.117Z,102329.59
2023-05-07T20:46:55.194Z,102322.94
2023-05-07T20:49:24.810Z,102318.34
2023-05-07T20:51:54.738Z,102322.94
2023-05-07T20:54:24.483Z,102324.03
2023-05-07T20:56:53.942Z,102325.63
2023-05-07T20:59:23.580Z,102329.47
2023-05-07T21:01:56.917Z,102322.13
2023-05-07T21:04:26.454Z,102322.72
2023-05-07T21:06:56.071Z,102316.56
2023-05-07T21:09:26.531Z,102324.47
2023-05-07T21:11:56.318Z,102322.69
2023-05-07T21:14:25.779Z,102317.41
2023-05-07T21:17:00.395Z,102320.34
2023-05-07T21:19:30.093Z,102318.72
2023-05-07T21:21:59.639Z,102319.94
2023-05-07T21:24:29.158Z,102321.31
2023-05-07T21:27:00.000Z,102319.19
2023-05-07T21:29:29.929Z,102323.06
2023-05-07T21:32:03.632Z,102323.97
2023-05-07T21:34:33.159Z,102320.59
2023-05-07T21:37:02.713Z,102315.88
2023-05-07T21:39:32.181Z,102321.97
2023-05-07T21:42:02.029Z,102317.78
2023-05-07T21:44:32.030Z,102312.81
2023-05-07T21:47:04.316Z,102317.44
2023-05-07T21:49:33.813Z,102315.72
2023-05-07T21:52:03.354Z,102312.13
2023-05-07T21:54:32.816Z,102322.38
2023-05-07T21:57:02.749Z,102327.97
2023-05-07T21:59:34.197Z,102331.16
2023-05-07T22:02:06.872Z,102328.34
2023-05-07T22:04:36.637Z,102330.72
2023-05-07T22:07:06.585Z,102332.28
2023-05-07T22:09:36.051Z,102333.06
2023-05-07T22:12:05.597Z,102340.78
2023-05-07T22:14:35.318Z,102339.91
2023-05-07T22:17:07.445Z,102344.41
2023-05-07T22:19:37.181Z,102351.03
2023-05-07T22:22:06.683Z,102354.41
2023-05-07T22:24:36.288Z,102350.25
2023-05-07T22:27:05.800Z,102357.41
2023-05-07T22:29:35.329Z,102359.19
2023-05-07T22:32:10.446Z,102361.09
2023-05-07T22:34:41.412Z,102355.84
2023-05-07T22:37:11.001Z,102361.78
2023-05-07T22:39:42.087Z,102358.09
2023-05-07T22:42:11.573Z,102362.34
2023-05-07T22:44:41.088Z,102368.41
2023-05-07T22:47:13.135Z,102365.94
2023-05-07T22:49:42.877Z,102364.16
2023-05-07T22:52:12.430Z,102369.06
2023-05-07T22:54:42.011Z,102365.94
2023-05-07T22:57:11.560Z,102377.81
2023-05-07T22:59:41.042Z,102370.75
2023-05-07T23:02:13.175Z,102376.59
2023-05-07T23:04:42.751Z,102374.91
2023-05-07T23:07:12.507Z,102379.84
2023-05-07T23:09:42.070Z,102380.53
2023-05-07T23:12:11.786Z,102374.94
2023-05-07T23:14:41.559Z,102373.34
2023-05-07T23:17:13.704Z,102372.03
2023-05-07T23:19:43.561Z,102369.34
2023-05-07T23:22:13.086Z,102371.31
2023-05-07T23:24:42.650Z,102372.03
2023-05-07T23:27:12.103Z,102363.59
2023-05-07T23:29:41.784Z,102375.81
2023-05-07T23:32:14.006Z,102380.41
2023-05-07T23:34:43.847Z,102377.38
2023-05-07T23:37:13.331Z,102376.94
2023-05-07T23:39:42.793Z,102375.38
2023-05-07T23:42:12.615Z,102368.22
2023-05-07T23:44:42.138Z,102367.97
2023-05-07T23:47:14.193Z,102359.28
2023-05-07T23:49:43.714Z,102349.25
2023-05-07T23:52:13.376Z,102356.94
2023-05-07T23:54:43.181Z,102363.25
2023-05-07T23:57:12.862Z,102373.00
2023-05-07T23:59:42.592Z,102379.34
